• Join FlightAware (Why Join?)
  • Login
  • US Flag 
11:03AM EDT


 

Airport Tracker/Info


-or-


 

Live Flight TrackerFlight Track Log ✈ SKW5564 ✈ 29-Aug-2013 ✈ KDEN - KBIS

Flight Track Log - Related Links

Times and Time Zones

All times are in EDT time to prevent confusion due to time zone crossing. See the SKW5564 flight status page for this flight to view local times or setup timezone preferences in your user account.

Time Position Orientation Groundspeed Altitude Reporting Facility
EDT Latitude Longitude Course Direction KTS MPH feet Rate Location/Type
11:59PM 40.3341 -104.4335 21° North  Level Estimated
12:00AM 40.4521 -104.3730 21° North  Level Estimated
12:01AM 40.5701 -104.3124 21° North  Level Estimated
12:02AM 40.6881 -104.2515 21° North  Level Estimated
12:03AM 40.8060 -104.1904 21° North  Level Estimated
12:04AM 40.9239 -104.1291 21° North  Level Estimated
12:05AM 41.0418 -104.0676 21° North  Level Estimated
12:06AM 41.1596 -104.0059 22° Northeast  Level Estimated
12:07AM 41.2774 -103.9439 22° Northeast  Level Estimated
12:08AM 41.3952 -103.8817 22° Northeast  Level Estimated
12:09AM 41.5129 -103.8193 22° Northeast  Level Estimated
12:10AM 41.6306 -103.7567 22° Northeast  Level Estimated
12:11AM 41.7483 -103.6938 22° Northeast  Level Estimated
12:12AM 41.8659 -103.6307 22° Northeast  Level Estimated
12:13AM 41.9835 -103.5673 22° Northeast  Level Estimated
12:14AM 42.1011 -103.5038 22° Northeast  Level Estimated
12:15AM 42.2186 -103.4400 22° Northeast  Level Estimated
12:16AM 42.3361 -103.3759 22° Northeast  Level Estimated
12:17AM 42.4536 -103.3116 22° Northeast  Level Estimated
12:18AM 42.5710 -103.2471 22° Northeast  Level Estimated
12:19AM 42.6884 -103.1823 22° Northeast  Level Estimated
12:20AM 42.8057 -103.1173 22° Northeast  Level Estimated
12:21AM 42.9230 -103.0521 22° Northeast  Level Estimated
12:22AM 43.0403 -102.9865 22° Northeast  Level Estimated
12:23AM 43.1576 -102.9208 22° Northeast  Level Estimated
12:24AM 43.2747 -102.8548 22° Northeast  Level Estimated
12:25AM 43.3919 -102.7885 22° Northeast  Level Estimated
12:26AM 43.5090 -102.7220 22° Northeast  Level Estimated
12:27AM 43.6261 -102.6552 22° Northeast  Level Estimated
12:28AM 43.7431 -102.5882 22° Northeast  Level Estimated
12:29AM 43.8601 -102.5208 23° Northeast  Level Estimated
12:30AM 43.9771 -102.4533 23° Northeast  Level Estimated
12:31AM 44.0940 -102.3854 23° Northeast  Level Estimated
12:32AM 44.2109 -102.3173 23° Northeast  Level Estimated
12:33AM 44.3278 -102.2489 23° Northeast  Level Estimated
12:34AM 44.4445 -102.1803 23° Northeast  Level Estimated
12:35AM 44.5613 -102.1114 23° Northeast  Level Estimated
12:36AM 44.6780 -102.0422 23° Northeast  Level Estimated
12:37AM 44.7947 -101.9727 23° Northeast  Level Estimated
12:38AM 44.9114 -101.9029 23° Northeast  Level Estimated
12:39AM 45.0279 -101.8329 23° Northeast  Level Estimated
12:40AM 45.1445 -101.7625 23° Northeast  Level Estimated
12:41AM 45.2610 -101.6919 23° Northeast  Level Estimated
12:42AM 45.3775 -101.6210 23° Northeast  Level Estimated
12:43AM 45.4939 -101.5498 23° Northeast  Level Estimated
12:44AM 45.6102 -101.4783 23° Northeast  Level Estimated
12:45AM 45.7266 -101.4065 23° Northeast  Level Estimated
12:46AM 45.8429 -101.3344 23° Northeast  Level Estimated
12:47AM 45.9591 -101.2620 23° Northeast  Level Estimated
12:48AM 46.0753 -101.1893 23° Northeast  Level Estimated
12:49AM 46.1914 -101.1163 24° Northeast  Level Estimated
12:50AM 46.3075 -101.0430 24° Northeast  Level Estimated
12:51AM 46.4236 -100.9693 24° Northeast  Level Estimated
12:52AM 46.5396 -100.8954 24° Northeast  Level Estimated
12:53AM 46.6556 -100.8211 24° Northeast  Level Estimated
12:54AM 46.7715 -100.7466 24° Northeast  Level Estimated
12:55AM 46.7727 -100.7458 24° Northeast  Level Estimated
12:56AM 46.7727 -100.7458 North  Level Estimated
12:57AM 46.7727 -100.7458 North  Level Estimated
12:58AM 46.7727 -100.7458 North  Level Estimated
12:59AM 46.7727 -100.7458 North  Level Estimated
01:00AM 46.7727 -100.7458 North  Level Estimated
01:01AM 46.7727 -100.7458 North  Level Estimated
01:02AM 46.7727 -100.7458 North  Level Estimated
01:03AM 46.7727 -100.7458 North  Level Estimated
01:04AM 46.7727 -100.7458 North  Level Estimated
01:05AM 46.7727 -100.7458 North  Level Estimated
01:06AM 46.7727 -100.7458 North  Level Estimated
01:07AM 46.7727 -100.7458 North  Level Estimated
01:08AM 46.7727 -100.7458 North  Level Estimated
01:09AM 46.7727 -100.7458 North  Level Estimated